createdAt,value
2017-06-25T00:01:11.201Z,6.40
2017-06-25T00:03:37.068Z,5.40
2017-06-25T00:06:03.003Z,5.60
2017-06-25T00:08:28.851Z,6.03
2017-06-25T00:10:54.715Z,5.83
2017-06-25T00:13:20.747Z,6.10
2017-06-25T00:15:46.764Z,5.83
2017-06-25T00:18:12.845Z,6.10
2017-06-25T00:20:38.729Z,6.60
2017-06-25T00:23:04.617Z,6.70
2017-06-25T00:25:30.521Z,6.00
2017-06-25T00:27:56.395Z,6.27
2017-06-25T00:30:22.279Z,6.67
2017-06-25T00:32:48.146Z,6.00
2017-06-25T00:35:14.059Z,6.53
2017-06-25T00:37:39.999Z,6.43
2017-06-25T00:40:05.873Z,6.40
2017-06-25T00:42:31.816Z,6.37
2017-06-25T00:44:57.699Z,6.53
2017-06-25T00:47:23.580Z,5.87
2017-06-25T00:49:49.500Z,6.47
2017-06-25T00:52:15.363Z,5.80
2017-06-25T00:54:41.195Z,6.63
2017-06-25T00:57:07.243Z,6.07
2017-06-25T00:59:33.155Z,5.60
2017-06-25T01:01:59.013Z,5.83
2017-06-25T01:04:24.933Z,6.23
2017-06-25T01:06:50.812Z,6.70
2017-06-25T01:09:16.653Z,8.43
2017-06-25T01:11:42.553Z,7.87
2017-06-25T01:14:08.472Z,6.67
2017-06-25T01:16:34.296Z,7.27
2017-06-25T01:19:00.224Z,6.43
2017-06-25T01:21:26.172Z,6.40
2017-06-25T01:23:51.999Z,5.33
2017-06-25T01:26:17.829Z,6.00
2017-06-25T01:28:43.688Z,5.97
2017-06-25T01:31:09.609Z,5.50
2017-06-25T01:33:35.552Z,6.20
2017-06-25T01:36:01.458Z,6.47
2017-06-25T01:38:27.332Z,5.80
2017-06-25T01:40:53.184Z,8.30
2017-06-25T01:43:19.151Z,7.50
2017-06-25T01:45:45.026Z,6.60
2017-06-25T01:48:10.965Z,6.93
2017-06-25T01:50:36.916Z,8.47
2017-06-25T01:53:02.843Z,6.93
2017-06-25T01:55:28.693Z,6.83
2017-06-25T01:57:54.756Z,6.50
2017-06-25T02:00:20.666Z,5.83
2017-06-25T02:02:46.500Z,7.03
2017-06-25T02:05:12.417Z,5.77
2017-06-25T02:07:38.327Z,6.10
2017-06-25T02:10:04.216Z,5.90
2017-06-25T02:12:30.061Z,5.53
2017-06-25T02:14:55.983Z,5.40
2017-06-25T02:17:21.904Z,4.50
2017-06-25T02:19:47.950Z,5.47
2017-06-25T02:22:13.879Z,5.20
2017-06-25T02:24:39.886Z,5.83
2017-06-25T02:27:05.785Z,6.03
2017-06-25T02:29:31.734Z,7.00
2017-06-25T02:31:57.637Z,5.67
2017-06-25T02:34:23.492Z,6.23
2017-06-25T02:36:49.402Z,6.93
2017-06-25T02:39:15.296Z,6.47
2017-06-25T02:41:41.136Z,6.30
2017-06-25T02:44:07.008Z,7.10
2017-06-25T02:46:33.043Z,5.00
2017-06-25T02:48:58.972Z,5.40
2017-06-25T02:51:24.861Z,4.50
2017-06-25T02:53:50.728Z,4.27
2017-06-25T02:56:17.077Z,3.67
2017-06-25T02:58:42.919Z,4.20
2017-06-25T03:01:08.828Z,4.03
2017-06-25T03:03:34.812Z,3.80
2017-06-25T03:06:00.738Z,3.40
2017-06-25T03:08:26.656Z,4.47
2017-06-25T03:10:52.588Z,4.90
2017-06-25T03:13:18.493Z,3.57
2017-06-25T03:15:44.414Z,3.80
2017-06-25T03:18:10.236Z,3.70
2017-06-25T03:20:36.174Z,3.80
2017-06-25T03:23:02.055Z,3.80
2017-06-25T03:25:27.962Z,4.10
2017-06-25T03:27:53.809Z,4.83
2017-06-25T03:30:19.722Z,5.47
2017-06-25T03:32:45.671Z,4.90
2017-06-25T03:35:11.620Z,5.10
2017-06-25T03:37:37.429Z,4.70
2017-06-25T03:40:03.230Z,4.33
2017-06-25T03:42:29.069Z,4.70
2017-06-25T03:44:54.897Z,4.40
2017-06-25T03:47:20.721Z,3.87
2017-06-25T03:49:46.585Z,4.40
2017-06-25T03:52:12.506Z,3.60
2017-06-25T03:54:38.335Z,4.03
2017-06-25T03:57:04.161Z,3.73
2017-06-25T03:59:30.009Z,3.70
2017-06-25T04:01:56.415Z,3.83
2017-06-25T04:04:22.221Z,4.13
2017-06-25T04:06:48.063Z,3.83
2017-06-25T04:09:13.935Z,4.00
2017-06-25T04:11:39.739Z,4.03
2017-06-25T04:14:05.564Z,3.73
2017-06-25T04:16:31.422Z,3.73
2017-06-25T04:18:57.389Z,3.27
2017-06-25T04:21:23.205Z,3.43
2017-06-25T04:23:49.068Z,3.43
2017-06-25T04:26:14.972Z,3.90
2017-06-25T04:28:40.817Z,3.23
2017-06-25T04:31:06.649Z,3.73
2017-06-25T04:33:32.454Z,3.87
2017-06-25T04:35:58.297Z,4.13
2017-06-25T04:38:24.132Z,3.70
2017-06-25T04:40:49.934Z,4.20
2017-06-25T04:43:15.770Z,5.03
2017-06-25T04:45:41.601Z,3.90
2017-06-25T04:48:07.499Z,3.50
2017-06-25T04:50:33.362Z,4.10
2017-06-25T04:52:59.184Z,3.47
2017-06-25T04:55:25.101Z,4.07
2017-06-25T04:57:50.940Z,4.07
2017-06-25T05:00:16.865Z,3.80
2017-06-25T05:02:42.671Z,3.57
2017-06-25T05:05:08.521Z,3.70
2017-06-25T05:07:34.342Z,4.10
2017-06-25T05:10:00.184Z,3.80
2017-06-25T05:12:30.974Z,3.80
2017-06-25T05:15:00.928Z,3.77
2017-06-25T05:17:26.863Z,4.50
2017-06-25T05:19:52.694Z,3.53
2017-06-25T05:22:18.551Z,4.10
2017-06-25T05:24:44.466Z,3.70
2017-06-25T05:27:10.267Z,3.93
2017-06-25T05:29:36.133Z,4.17
2017-06-25T05:32:02.002Z,3.90
2017-06-25T05:34:27.871Z,3.60
2017-06-25T05:36:53.848Z,3.80
2017-06-25T05:39:19.923Z,4.47
2017-06-25T05:41:45.790Z,4.20
2017-06-25T05:44:11.681Z,4.70
2017-06-25T05:46:37.496Z,4.20
2017-06-25T05:49:03.312Z,3.77
2017-06-25T05:51:29.202Z,3.83
2017-06-25T05:53:55.089Z,3.73
2017-06-25T05:56:20.938Z,4.33
2017-06-25T05:58:46.841Z,4.00
2017-06-25T06:01:12.882Z,3.80
2017-06-25T06:03:38.775Z,4.10
2017-06-25T06:06:04.642Z,2.83
2017-06-25T06:08:30.506Z,3.07
2017-06-25T06:10:56.538Z,2.97
2017-06-25T06:13:22.392Z,3.63
2017-06-25T06:15:48.367Z,3.17
2017-06-25T06:18:14.409Z,3.00
2017-06-25T06:20:40.206Z,2.80
2017-06-25T06:23:06.051Z,3.50
2017-06-25T06:25:31.963Z,3.97
2017-06-25T06:27:57.828Z,2.90
2017-06-25T06:30:23.634Z,3.13
2017-06-25T06:32:49.524Z,3.20
2017-06-25T06:35:15.352Z,2.57
2017-06-25T06:37:41.260Z,2.87
2017-06-25T06:40:07.214Z,2.47
2017-06-25T06:42:33.094Z,2.67
2017-06-25T06:45:00.019Z,3.03
2017-06-25T06:47:25.872Z,2.80
2017-06-25T06:49:51.930Z,2.70
2017-06-25T06:52:17.844Z,2.80
2017-06-25T06:54:43.647Z,2.37
2017-06-25T06:57:09.529Z,2.80
2017-06-25T06:59:35.397Z,2.90
2017-06-25T07:02:01.287Z,1.97
2017-06-25T07:04:27.182Z,2.63
2017-06-25T07:06:53.006Z,2.60
2017-06-25T07:09:18.836Z,2.40
2017-06-25T07:11:44.675Z,2.30
2017-06-25T07:14:10.675Z,2.10
2017-06-25T07:16:36.641Z,2.33
2017-06-25T07:19:02.537Z,2.10
2017-06-25T07:21:28.392Z,2.17
2017-06-25T07:23:54.694Z,2.17
2017-06-25T07:26:21.545Z,1.93
2017-06-25T07:28:47.416Z,1.93
2017-06-25T07:31:13.244Z,2.67
2017-06-25T07:33:39.109Z,2.70
2017-06-25T07:36:05.036Z,2.50
2017-06-25T07:38:30.935Z,1.73
2017-06-25T07:40:56.961Z,2.57
2017-06-25T07:43:23.045Z,2.43
2017-06-25T07:45:48.994Z,1.93
2017-06-25T07:48:14.848Z,2.33
2017-06-25T07:50:40.835Z,1.80
2017-06-25T07:53:06.695Z,2.27
2017-06-25T07:55:32.691Z,1.90
2017-06-25T07:57:58.603Z,2.40
2017-06-25T08:00:24.571Z,2.10
2017-06-25T08:02:50.454Z,2.13
2017-06-25T08:05:16.693Z,2.77
2017-06-25T08:07:42.537Z,2.40
2017-06-25T08:10:08.345Z,2.30
2017-06-25T08:12:34.211Z,2.53
2017-06-25T08:15:00.033Z,2.03
2017-06-25T08:17:25.863Z,2.57
2017-06-25T08:19:51.872Z,2.20
2017-06-25T08:22:17.912Z,2.50
2017-06-25T08:24:43.844Z,2.27
2017-06-25T08:27:09.720Z,1.80
2017-06-25T08:29:35.591Z,2.10
2017-06-25T08:32:01.503Z,1.90
2017-06-25T08:34:27.381Z,1.50
2017-06-25T08:36:53.217Z,2.63
2017-06-25T08:39:19.033Z,2.10
2017-06-25T08:41:44.942Z,2.10
2017-06-25T08:44:10.918Z,1.97
2017-06-25T08:46:36.887Z,2.63
2017-06-25T08:49:02.763Z,2.23
2017-06-25T08:51:28.709Z,1.97
2017-06-25T08:53:54.845Z,2.40
2017-06-25T08:56:20.809Z,1.70
2017-06-25T08:58:46.819Z,1.77
2017-06-25T09:01:12.700Z,2.30
2017-06-25T09:03:38.579Z,1.77
2017-06-25T09:06:04.493Z,2.33
2017-06-25T09:08:30.338Z,2.13
2017-06-25T09:10:56.286Z,1.80
2017-06-25T09:13:22.111Z,1.60
2017-06-25T09:15:47.930Z,1.77
2017-06-25T09:18:14.032Z,1.60
2017-06-25T09:20:39.937Z,1.80
2017-06-25T09:23:05.768Z,1.97
2017-06-25T09:25:31.633Z,1.50
2017-06-25T09:27:57.481Z,1.50
2017-06-25T09:30:23.541Z,1.40
2017-06-25T09:32:49.428Z,1.47
2017-06-25T09:35:15.245Z,6.03
2017-06-25T09:37:41.109Z,2.30
2017-06-25T09:40:06.934Z,1.70
2017-06-25T09:42:32.848Z,1.63
2017-06-25T09:44:58.867Z,1.60
2017-06-25T09:47:24.744Z,1.90
2017-06-25T09:49:50.594Z,2.43
2017-06-25T09:52:16.452Z,2.10
2017-06-25T09:54:42.260Z,1.63
2017-06-25T09:57:08.113Z,1.70
2017-06-25T09:59:33.968Z,2.20
2017-06-25T10:01:59.861Z,1.77
2017-06-25T10:04:25.698Z,2.33
2017-06-25T10:06:51.620Z,1.70
2017-06-25T10:09:17.553Z,1.80
2017-06-25T10:11:43.384Z,1.80
2017-06-25T10:14:09.272Z,1.60
2017-06-25T10:16:35.205Z,1.80
2017-06-25T10:19:01.861Z,2.07
2017-06-25T10:21:27.748Z,1.67
2017-06-25T10:23:53.751Z,1.60
2017-06-25T10:26:19.616Z,2.10
2017-06-25T10:28:45.499Z,1.73
2017-06-25T10:31:11.352Z,2.03
2017-06-25T10:33:37.316Z,2.20
2017-06-25T10:36:03.257Z,1.60
2017-06-25T10:38:29.177Z,2.00
2017-06-25T10:40:55.043Z,1.90
2017-06-25T10:43:20.985Z,2.00
2017-06-25T10:45:46.942Z,1.77
2017-06-25T10:48:12.975Z,2.27
2017-06-25T10:50:39.054Z,1.70
2017-06-25T10:53:04.925Z,2.27
2017-06-25T10:55:30.751Z,2.10
2017-06-25T10:57:57.839Z,2.30
2017-06-25T11:00:23.724Z,1.90
2017-06-25T11:02:50.459Z,2.17
2017-06-25T11:05:16.323Z,1.93
2017-06-25T11:07:42.192Z,2.90
2017-06-25T11:10:08.149Z,2.03
2017-06-25T11:12:34.232Z,2.30
2017-06-25T11:15:00.208Z,1.90
2017-06-25T11:17:26.055Z,2.27
2017-06-25T11:19:52.009Z,1.97
2017-06-25T11:22:17.884Z,2.30
2017-06-25T11:24:43.797Z,2.40
2017-06-25T11:27:09.692Z,2.70
2017-06-25T11:29:35.540Z,2.30
2017-06-25T11:32:01.411Z,2.80
2017-06-25T11:34:27.381Z,2.80
2017-06-25T11:36:53.225Z,2.70
2017-06-25T11:39:19.096Z,2.70
2017-06-25T11:41:44.988Z,2.37
2017-06-25T11:44:10.852Z,2.53
2017-06-25T11:46:36.733Z,1.90
2017-06-25T11:49:03.065Z,2.50
2017-06-25T11:51:28.973Z,2.97
2017-06-25T11:53:54.893Z,3.33
2017-06-25T11:56:20.816Z,2.40
2017-06-25T11:58:46.862Z,2.33
2017-06-25T12:01:12.788Z,2.73
2017-06-25T12:03:38.671Z,2.90
2017-06-25T12:06:04.520Z,2.17
2017-06-25T12:08:30.535Z,2.77
2017-06-25T12:10:56.506Z,2.17
2017-06-25T12:13:22.339Z,2.27
2017-06-25T12:15:48.184Z,3.00
2017-06-25T12:18:14.226Z,2.43
2017-06-25T12:20:40.160Z,1.90
2017-06-25T12:23:06.033Z,2.20
2017-06-25T12:25:32.017Z,2.13
2017-06-25T12:27:57.898Z,1.90
2017-06-25T12:30:23.863Z,1.90
2017-06-25T12:32:49.695Z,2.17
2017-06-25T12:35:15.576Z,1.70
2017-06-25T12:37:41.526Z,2.00
2017-06-25T12:40:07.374Z,1.93
2017-06-25T12:42:33.200Z,1.97
2017-06-25T12:44:59.096Z,1.93
2017-06-25T12:47:24.984Z,2.43
2017-06-25T12:49:50.839Z,1.80
2017-06-25T12:52:16.688Z,2.10
2017-06-25T12:54:42.613Z,1.97
2017-06-25T12:57:08.491Z,1.33
2017-06-25T12:59:34.331Z,2.00
2017-06-25T13:02:00.171Z,2.00
2017-06-25T13:04:26.143Z,2.10
2017-06-25T13:06:52.000Z,1.87
2017-06-25T13:09:19.863Z,1.80
2017-06-25T13:11:45.884Z,2.20
2017-06-25T13:14:11.788Z,1.77
2017-06-25T13:16:37.724Z,2.20
2017-06-25T13:19:03.550Z,2.00
2017-06-25T13:21:30.418Z,5.23
2017-06-25T13:23:56.331Z,2.30
2017-06-25T13:26:22.204Z,1.63
2017-06-25T13:28:48.030Z,1.80
2017-06-25T13:31:13.852Z,1.97
2017-06-25T13:33:39.735Z,2.13
2017-06-25T13:36:05.698Z,1.97
2017-06-25T13:38:31.527Z,2.00
2017-06-25T13:40:57.373Z,2.00
2017-06-25T13:43:23.358Z,1.60
2017-06-25T13:45:49.206Z,1.70
2017-06-25T13:48:15.223Z,1.87
2017-06-25T13:50:41.207Z,2.10
2017-06-25T13:53:07.030Z,1.63
2017-06-25T13:55:39.763Z,1.60
2017-06-25T13:58:05.631Z,1.97
2017-06-25T14:00:31.482Z,1.83
2017-06-25T14:02:57.779Z,2.03
2017-06-25T14:05:23.772Z,1.53
2017-06-25T14:07:49.676Z,1.90
2017-06-25T14:10:15.618Z,1.83
2017-06-25T14:12:41.492Z,1.93
2017-06-25T14:15:07.402Z,2.00
2017-06-25T14:17:33.259Z,1.43
2017-06-25T14:19:59.189Z,2.00
2017-06-25T14:22:25.044Z,1.60
2017-06-25T14:24:50.921Z,2.30
2017-06-25T14:27:16.821Z,1.70
2017-06-25T14:29:42.657Z,1.90
2017-06-25T14:32:08.583Z,2.03
2017-06-25T14:34:34.484Z,2.00
2017-06-25T14:37:00.356Z,2.17
2017-06-25T14:39:26.456Z,2.10
2017-06-25T14:41:52.488Z,2.23
2017-06-25T14:44:18.380Z,1.80
2017-06-25T14:46:44.319Z,2.07
2017-06-25T14:49:10.240Z,1.50
2017-06-25T14:51:36.135Z,1.73
2017-06-25T14:54:02.056Z,2.00
2017-06-25T14:56:28.020Z,2.23
2017-06-25T14:58:53.896Z,3.60
2017-06-25T15:01:19.867Z,1.90
2017-06-25T15:03:45.895Z,1.90
2017-06-25T15:06:11.861Z,1.70
2017-06-25T15:08:37.863Z,1.47
2017-06-25T15:11:03.922Z,1.63
2017-06-25T15:13:29.844Z,1.60
2017-06-25T15:15:55.782Z,1.53
2017-06-25T15:18:21.805Z,1.90
2017-06-25T15:20:47.706Z,1.70
2017-06-25T15:23:13.583Z,2.50
2017-06-25T15:25:39.448Z,2.00
2017-06-25T15:28:05.369Z,1.70
2017-06-25T15:30:31.227Z,1.90
2017-06-25T15:32:57.088Z,1.87
2017-06-25T15:35:22.936Z,2.00
2017-06-25T15:37:48.864Z,1.90
2017-06-25T15:40:14.703Z,2.23
2017-06-25T15:42:40.568Z,1.70
2017-06-25T15:45:06.385Z,1.60
2017-06-25T15:47:32.231Z,1.50
2017-06-25T15:49:58.137Z,1.70
2017-06-25T15:52:24.069Z,2.10
2017-06-25T15:54:49.927Z,2.00
2017-06-25T15:57:16.430Z,1.53
2017-06-25T15:59:42.300Z,2.33
2017-06-25T16:02:08.137Z,2.30
2017-06-25T16:04:33.959Z,2.27
2017-06-25T16:06:59.818Z,2.10
2017-06-25T16:09:25.725Z,2.03
2017-06-25T16:11:51.630Z,1.90
2017-06-25T16:14:17.687Z,2.13
2017-06-25T16:16:43.508Z,2.23
2017-06-25T16:19:09.512Z,2.37
2017-06-25T16:21:35.341Z,2.30
2017-06-25T16:24:01.180Z,2.60
2017-06-25T16:26:27.077Z,2.10
2017-06-25T16:28:52.966Z,2.03
2017-06-25T16:31:18.800Z,2.00
2017-06-25T16:33:45.560Z,2.33
2017-06-25T16:36:11.474Z,1.97
2017-06-25T16:38:37.429Z,2.23
2017-06-25T16:41:03.295Z,2.03
2017-06-25T16:43:36.034Z,2.30
2017-06-25T16:46:01.965Z,1.60
2017-06-25T16:48:27.828Z,1.97
2017-06-25T16:50:53.736Z,2.30
2017-06-25T16:53:19.781Z,2.10
2017-06-25T16:55:45.620Z,2.47
2017-06-25T16:58:11.648Z,1.80
2017-06-25T17:00:52.561Z,2.10
2017-06-25T17:03:18.448Z,2.40
2017-06-25T17:05:44.312Z,8.43
2017-06-25T17:08:10.245Z,1.73
2017-06-25T17:10:36.247Z,1.97
2017-06-25T17:13:02.179Z,2.20
2017-06-25T17:15:28.051Z,2.13
2017-06-25T17:17:53.917Z,2.17
2017-06-25T17:20:19.868Z,1.77
2017-06-25T17:22:46.283Z,2.07
2017-06-25T17:25:12.144Z,1.70
2017-06-25T17:27:37.988Z,2.20
2017-06-25T17:30:03.848Z,1.80
2017-06-25T17:32:29.745Z,2.23
2017-06-25T17:34:55.633Z,2.10
2017-06-25T17:37:21.460Z,2.27
2017-06-25T17:39:47.334Z,1.90
2017-06-25T17:42:13.242Z,1.90
2017-06-25T17:44:39.085Z,2.10
2017-06-25T17:47:04.894Z,1.57
2017-06-25T17:49:30.820Z,2.30
2017-06-25T17:51:56.738Z,1.90
2017-06-25T17:54:22.658Z,1.93
2017-06-25T17:56:48.526Z,2.10
2017-06-25T17:59:14.487Z,2.00
2017-06-25T18:01:40.390Z,1.87
2017-06-25T18:04:06.251Z,1.93
2017-06-25T18:06:32.092Z,2.67
2017-06-25T18:08:57.987Z,5.73
2017-06-25T18:11:23.860Z,2.00
2017-06-25T18:13:49.784Z,2.00
2017-06-25T18:16:15.669Z,2.10
2017-06-25T18:18:41.554Z,1.77
2017-06-25T18:21:07.393Z,2.07
2017-06-25T18:23:33.264Z,2.40
2017-06-25T18:25:59.212Z,1.80
2017-06-25T18:28:25.083Z,1.83
2017-06-25T18:30:50.915Z,1.50
2017-06-25T18:33:16.754Z,2.10
2017-06-25T18:35:42.628Z,1.73
2017-06-25T18:38:08.492Z,2.60
2017-06-25T18:40:34.404Z,1.57
2017-06-25T18:43:00.266Z,2.70
2017-06-25T18:45:26.177Z,1.83
2017-06-25T18:47:52.115Z,2.10
2017-06-25T18:50:17.966Z,2.00
2017-06-25T18:52:43.778Z,1.70
2017-06-25T18:55:09.658Z,2.53
2017-06-25T18:57:35.607Z,2.13
2017-06-25T19:00:01.452Z,2.20
2017-06-25T19:02:27.292Z,2.07
2017-06-25T19:04:53.142Z,2.17
2017-06-25T19:07:19.050Z,1.67
2017-06-25T19:09:44.961Z,2.03
2017-06-25T19:12:10.793Z,3.23
2017-06-25T19:14:36.704Z,2.10
2017-06-25T19:17:02.569Z,2.30
2017-06-25T19:19:28.429Z,2.20
2017-06-25T19:21:54.345Z,2.63
2017-06-25T19:24:20.175Z,10.00
2017-06-25T19:26:45.994Z,4.00
2017-06-25T19:29:11.946Z,2.60
2017-06-25T19:31:37.773Z,2.00
2017-06-25T19:34:03.638Z,2.10
2017-06-25T19:36:29.625Z,1.63
2017-06-25T19:38:55.695Z,2.00
2017-06-25T19:41:21.616Z,2.20
2017-06-25T19:43:47.569Z,2.00
2017-06-25T19:46:13.587Z,2.33
2017-06-25T19:48:39.415Z,2.60
2017-06-25T19:51:05.354Z,2.10
2017-06-25T19:53:31.196Z,1.70
2017-06-25T19:55:57.223Z,2.03
2017-06-25T19:58:23.074Z,2.30
2017-06-25T20:00:49.082Z,2.30
2017-06-25T20:03:15.055Z,1.90
2017-06-25T20:05:40.922Z,1.80
2017-06-25T20:08:06.780Z,1.80
2017-06-25T20:10:32.685Z,1.70
2017-06-25T20:12:58.624Z,2.40
2017-06-25T20:15:24.548Z,2.03
2017-06-25T20:17:50.437Z,2.60
2017-06-25T20:20:16.403Z,2.40
2017-06-25T20:22:42.240Z,2.27
2017-06-25T20:25:08.093Z,1.73
2017-06-25T20:27:34.055Z,2.10
2017-06-25T20:29:59.944Z,2.07
2017-06-25T20:32:25.956Z,1.97
2017-06-25T20:34:51.893Z,2.47
2017-06-25T20:37:17.761Z,2.33
2017-06-25T20:39:43.648Z,2.17
2017-06-25T20:42:09.552Z,2.10
2017-06-25T20:44:35.441Z,2.03
2017-06-25T20:47:01.340Z,2.77
2017-06-25T20:49:27.208Z,2.10
2017-06-25T20:51:53.051Z,2.03
2017-06-25T20:54:18.954Z,2.70
2017-06-25T20:56:44.908Z,2.20
2017-06-25T20:59:10.797Z,2.00
2017-06-25T21:01:36.809Z,2.00
2017-06-25T21:04:02.747Z,2.43
2017-06-25T21:06:28.589Z,2.63
2017-06-25T21:08:54.497Z,2.40
2017-06-25T21:11:20.388Z,2.00
2017-06-25T21:13:46.313Z,2.40
2017-06-25T21:16:12.284Z,2.00
2017-06-25T21:18:38.142Z,2.63
2017-06-25T21:21:04.081Z,2.57
2017-06-25T21:23:29.959Z,2.63
2017-06-25T21:25:55.792Z,2.20
2017-06-25T21:28:21.636Z,2.10
2017-06-25T21:30:47.601Z,2.10
2017-06-25T21:33:13.440Z,1.97
2017-06-25T21:35:39.349Z,2.33
2017-06-25T21:38:05.227Z,2.07
2017-06-25T21:40:31.141Z,2.70
2017-06-25T21:42:57.109Z,2.90
2017-06-25T21:45:23.025Z,2.60
2017-06-25T21:47:48.924Z,2.17
2017-06-25T21:50:14.800Z,2.23
2017-06-25T21:52:40.703Z,2.00
2017-06-25T21:55:06.565Z,2.27
2017-06-25T21:57:32.404Z,2.27
2017-06-25T21:59:58.266Z,2.10
2017-06-25T22:02:24.149Z,3.33
2017-06-25T22:04:50.053Z,3.10
2017-06-25T22:07:15.948Z,2.47
2017-06-25T22:09:41.841Z,2.60
2017-06-25T22:12:07.708Z,3.80
2017-06-25T22:14:33.652Z,3.20
2017-06-25T22:16:59.544Z,2.87
2017-06-25T22:19:25.389Z,2.80
2017-06-25T22:21:51.249Z,2.70
2017-06-25T22:24:17.116Z,3.03
2017-06-25T22:26:43.059Z,2.13
2017-06-25T22:29:08.887Z,3.03
2017-06-25T22:31:34.777Z,3.10
2017-06-25T22:34:00.772Z,2.90
2017-06-25T22:36:26.701Z,3.00
2017-06-25T22:38:52.549Z,2.60
2017-06-25T22:41:18.752Z,3.00
2017-06-25T22:43:44.635Z,3.17
2017-06-25T22:46:10.837Z,3.17
2017-06-25T22:48:38.325Z,3.20
2017-06-25T22:51:04.184Z,2.90
2017-06-25T22:53:30.092Z,2.93
2017-06-25T22:55:55.960Z,2.83
2017-06-25T22:58:21.818Z,2.40
2017-06-25T23:00:47.868Z,2.60
2017-06-25T23:03:13.788Z,2.50
2017-06-25T23:05:39.672Z,2.77
2017-06-25T23:08:05.510Z,2.67
2017-06-25T23:10:31.579Z,2.80
2017-06-25T23:12:57.471Z,2.53
2017-06-25T23:15:23.299Z,2.70
2017-06-25T23:17:49.163Z,3.03
2017-06-25T23:20:14.988Z,2.73
2017-06-25T23:22:41.000Z,3.10
2017-06-25T23:25:06.832Z,2.60
2017-06-25T23:27:32.714Z,2.50
2017-06-25T23:29:58.632Z,3.07
2017-06-25T23:32:25.285Z,2.53
2017-06-25T23:34:51.165Z,2.20
2017-06-25T23:37:17.188Z,2.60
2017-06-25T23:39:43.116Z,2.47
2017-06-25T23:42:09.016Z,2.50
2017-06-25T23:44:34.880Z,2.60
2017-06-25T23:47:00.784Z,2.23
2017-06-25T23:49:26.685Z,2.10
2017-06-25T23:51:52.620Z,2.47
2017-06-25T23:54:18.467Z,2.40
2017-06-25T23:56:44.345Z,2.80
2017-06-25T23:59:11.191Z,2.50
